Time;durP1;ratioP1;P1;durP2;ratioP2;P2;SDS_P1;SDS_P2;PMS_P1;PMS_P2;Temp;Humidity;BMP_temperature;BMP_pressure;BME280_temperature;BME280_humidity;BME280_pressure;Samples;Min_cycle;Max_cycle;Signal;HPM_P1;HPM_P2
2024/01/22 00:02:17;;;;;;;33.67;14.83;;;;;;;-2.64;79.92;102582.52;123057;1100;104642;-77
2024/01/22 00:04:48;;;;;;;32.30;15.87;;;;;;;-2.66;79.34;102584.00;123075;1099;104331;-77
2024/01/22 00:07:19;;;;;;;31.97;15.23;;;;;;;-2.68;79.32;102578.67;123170;1099;104267;-77
2024/01/22 00:09:50;;;;;;;33.03;15.50;;;;;;;-2.67;79.47;102577.01;123051;1099;104316;-77
2024/01/22 00:12:21;;;;;;;34.90;16.37;;;;;;;-2.67;79.29;102579.58;123077;1099;104370;-76
2024/01/22 00:14:53;;;;;;;37.20;16.00;;;;;;;-2.66;79.24;102577.19;123058;1099;104351;-77
2024/01/22 00:17:24;;;;;;;32.57;15.17;;;;;;;-2.62;80.52;102578.47;123126;1099;104252;-77
2024/01/22 00:19:55;;;;;;;36.10;16.90;;;;;;;-2.64;80.33;102575.72;123339;1099;104242;-75
2024/01/22 00:22:26;;;;;;;35.33;16.47;;;;;;;-2.61;79.68;102580.33;123107;1099;104322;-76
2024/01/22 00:24:57;;;;;;;37.23;17.13;;;;;;;-2.58;79.92;102583.27;123051;1099;105491;-77
2024/01/22 00:27:28;;;;;;;35.93;16.47;;;;;;;-2.57;80.62;102596.30;123188;1099;104274;-77
2024/01/22 00:30:00;;;;;;;34.57;14.87;;;;;;;-2.59;80.11;102592.61;123369;1099;104258;-77
2024/01/22 00:32:31;;;;;;;36.07;16.50;;;;;;;-2.68;79.34;102593.14;123308;1099;104796;-77
2024/01/22 00:35:02;;;;;;;35.60;15.85;;;;;;;-2.77;79.54;102599.02;123458;1099;104399;-77
2024/01/22 00:37:33;;;;;;;36.00;16.70;;;;;;;-2.85;79.44;102597.16;123296;1099;104277;-77
2024/01/22 00:40:06;;;;;;;34.07;16.53;;;;;;;-2.94;79.18;102593.45;123300;1099;104341;-77
2024/01/22 00:42:38;;;;;;;37.17;16.27;;;;;;;-2.97;79.51;102596.56;123379;1099;104272;-76
2024/01/22 00:45:10;;;;;;;37.43;16.93;;;;;;;-3.01;79.83;102595.98;123509;1099;104279;-76
2024/01/22 00:47:41;;;;;;;33.53;15.47;;;;;;;-3.03;80.20;102595.80;123411;1099;104300;-77
2024/01/22 00:50:12;;;;;;;34.20;17.00;;;;;;;-3.07;80.08;102602.22;123292;1099;104269;-76
2024/01/22 00:52:43;;;;;;;33.77;15.83;;;;;;;-3.10;79.27;102600.90;123428;1098;104347;-76
2024/01/22 00:55:17;;;;;;;35.17;16.07;;;;;;;-3.17;80.24;102616.30;123369;1099;104242;-76
2024/01/22 00:57:48;;;;;;;34.75;16.60;;;;;;;-3.22;79.46;102610.59;123403;1099;104261;-76
2024/01/22 01:00:20;;;;;;;34.67;15.53;;;;;;;-3.25;79.73;102607.64;123386;1099;104454;-76
2024/01/22 01:02:52;;;;;;;33.57;15.67;;;;;;;-3.31;79.77;102605.22;123433;1099;104354;-76
2024/01/22 01:05:24;;;;;;;33.73;16.57;;;;;;;-3.34;79.56;102599.70;123271;1099;104271;-76
2024/01/22 01:07:55;;;;;;;36.97;17.30;;;;;;;-3.38;79.63;102599.12;123236;1099;104190;-77
2024/01/22 01:10:26;;;;;;;36.27;17.07;;;;;;;-3.44;79.57;102587.37;123305;1099;104344;-76
2024/01/22 01:12:57;;;;;;;35.37;16.97;;;;;;;-3.46;79.09;102595.59;123523;1099;104191;-76
2024/01/22 01:15:28;;;;;;;38.17;17.17;;;;;;;-3.46;79.90;102599.10;123297;1098;104361;-76
2024/01/22 01:17:59;;;;;;;38.77;17.20;;;;;;;-3.47;79.63;102589.55;123363;1099;104194;-76
2024/01/22 01:20:31;;;;;;;36.90;16.40;;;;;;;-3.45;80.27;102587.17;123522;1098;104249;-76
2024/01/22 01:23:02;;;;;;;35.53;16.73;;;;;;;-3.45;79.89;102587.17;123417;1099;104262;-76
2024/01/22 01:25:33;;;;;;;32.27;15.43;;;;;;;-3.43;80.56;102590.84;123902;1099;104286;-76
2024/01/22 01:28:05;;;;;;;36.80;16.43;;;;;;;-3.43;79.96;102590.84;123024;1100;104328;-76
2024/01/22 01:30:36;;;;;;;36.57;15.33;;;;;;;-3.42;80.25;102584.99;123469;1099;104267;-76
2024/01/22 01:33:08;;;;;;;36.07;17.47;;;;;;;-3.43;79.89;102578.02;123354;1099;104274;-76
2024/01/22 01:35:39;;;;;;;35.90;16.03;;;;;;;-3.42;79.57;102581.52;123440;1099;104246;-76
2024/01/22 01:38:10;;;;;;;32.87;16.43;;;;;;;-3.45;79.48;102577.81;123386;1099;104316;-76
2024/01/22 01:40:43;;;;;;;31.20;15.30;;;;;;;-3.44;80.00;102582.23;123404;1099;104341;-76
2024/01/22 01:43:18;;;;;;;34.15;16.35;;;;;;;-3.43;79.91;102578.02;123150;1099;104238;-76
2024/01/22 01:45:49;;;;;;;37.93;16.93;;;;;;;-3.37;80.81;102577.86;123278;1099;104268;-76
2024/01/22 01:48:21;;;;;;;35.50;16.95;;;;;;;-3.32;81.13;102581.91;123504;1098;104287;-75
2024/01/22 01:50:52;;;;;;;35.60;16.20;;;;;;;-3.24;80.61;102578.67;123236;1099;104412;-75
2024/01/22 01:53:23;;;;;;;36.77;17.97;;;;;;;-3.16;80.79;102561.65;123170;1099;104284;-76
2024/01/22 01:55:55;;;;;;;34.13;16.43;;;;;;;-3.08;80.83;102566.07;123218;1099;104334;-76
2024/01/22 01:58:27;;;;;;;37.13;17.37;;;;;;;-3.04;80.32;102564.78;123446;1099;104325;-76
2024/01/22 02:01:01;;;;;;;37.00;16.07;;;;;;;-3.07;81.10;102573.02;123532;1099;104383;-77
2024/01/22 02:03:32;;;;;;;34.70;16.87;;;;;;;-3.12;80.99;102568.98;123361;1099;104264;-76
2024/01/22 02:06:04;;;;;;;36.45;16.80;;;;;;;-3.17;79.86;102578.69;123300;1099;104373;-76
2024/01/22 02:08:35;;;;;;;35.60;16.47;;;;;;;-3.22;80.15;102568.59;123130;1099;104258;-76
2024/01/22 02:11:06;;;;;;;33.87;16.53;;;;;;;-3.25;80.10;102577.73;123302;1099;104268;-76
2024/01/22 02:13:37;;;;;;;34.60;16.13;;;;;;;-3.27;80.48;102580.86;123402;1099;104405;-76
2024/01/22 02:16:09;;;;;;;37.97;17.27;;;;;;;-3.27;81.15;102573.16;123351;1099;104389;-77
2024/01/22 02:18:40;;;;;;;36.40;16.80;;;;;;;-3.30;81.12;102578.82;123371;1099;104396;-76
2024/01/22 02:21:12;;;;;;;36.50;18.00;;;;;;;-3.34;79.69;102578.25;123426;1099;104318;-76
2024/01/22 02:23:43;;;;;;;36.70;17.17;;;;;;;-3.36;81.14;102570.36;123400;1098;104268;-76
2024/01/22 02:26:14;;;;;;;36.57;17.43;;;;;;;-3.31;80.81;102576.06;123681;1099;104294;-76
2024/01/22 02:28:45;;;;;;;38.07;16.93;;;;;;;-3.25;81.01;102582.87;123429;1098;104473;-76
2024/01/22 02:31:17;;;;;;;38.77;17.50;;;;;;;-3.27;81.30;102584.34;123203;1099;104236;-76
2024/01/22 02:33:48;;;;;;;35.37;16.67;;;;;;;-3.34;79.92;102578.25;123280;1099;104281;-76
2024/01/22 02:36:19;;;;;;;41.57;18.27;;;;;;;-3.33;81.34;102581.00;123364;1099;104248;-76
2024/01/22 02:38:50;;;;;;;35.37;16.43;;;;;;;-3.33;80.35;102586.14;123256;1099;104348;-76
2024/01/22 02:41:21;;;;;;;35.83;17.67;;;;;;;-3.39;80.87;102587.03;123439;1099;104280;-77
2024/01/22 02:43:52;;;;;;;37.93;17.93;;;;;;;-3.50;80.52;102591.73;123060;1099;104268;-76
2024/01/22 02:46:24;;;;;;;39.90;17.50;;;;;;;-3.60;80.82;102591.30;123181;1099;104331;-76
2024/01/22 02:48:56;;;;;;;37.50;17.17;;;;;;;-3.66;79.93;102588.90;123110;1099;104334;-76
2024/01/22 02:51:27;;;;;;;40.75;18.45;;;;;;;-3.72;80.38;102595.83;123309;1099;104358;-76
2024/01/22 02:53:58;;;;;;;38.43;18.30;;;;;;;-3.77;80.45;102588.27;123101;1099;104418;-76
2024/01/22 02:56:30;;;;;;;40.57;18.27;;;;;;;-3.76;80.97;102591.02;123156;1099;104276;-76
2024/01/22 02:59:03;;;;;;;40.43;18.00;;;;;;;-3.77;80.44;102584.08;123378;1099;104239;-76
2024/01/22 03:01:34;;;;;;;37.37;17.43;;;;;;;-3.78;81.25;102589.01;123433;1098;104265;-76
2024/01/22 03:04:05;;;;;;;38.50;17.57;;;;;;;-3.80;80.89;102588.81;123398;1099;104325;-76
2024/01/22 03:06:37;;;;;;;39.20;19.40;;;;;;;-3.83;80.62;102585.86;123107;1099;104427;-77
2024/01/22 03:09:09;;;;;;;40.37;18.43;;;;;;;-3.82;80.93;102587.67;123153;1099;104233;-76
2024/01/22 03:11:40;;;;;;;40.90;18.97;;;;;;;-3.89;80.87;102590.22;123367;1098;104274;-77
2024/01/22 03:14:11;;;;;;;41.03;18.83;;;;;;;-3.97;80.82;102582.45;123377;1099;104254;-77
2024/01/22 03:16:42;;;;;;;39.73;18.93;;;;;;;-4.06;80.00;102588.07;123107;1102;104872;-77
2024/01/22 03:19:13;;;;;;;40.00;19.17;;;;;;;-4.11;80.03;102600.30;123388;1099;118712;-77
2024/01/22 03:21:45;;;;;;;43.77;19.80;;;;;;;-4.14;80.35;102599.91;123393;1099;104318;-75
2024/01/22 03:24:16;;;;;;;40.80;20.10;;;;;;;-4.16;80.16;102601.34;123367;1099;104320;-76
2024/01/22 03:26:47;;;;;;;40.00;18.23;;;;;;;-4.19;80.75;102598.38;123280;1099;104239;-76
2024/01/22 03:29:18;;;;;;;42.00;18.90;;;;;;;-4.22;80.53;102601.49;123128;1099;104322;-76
2024/01/22 03:31:50;;;;;;;42.17;19.20;;;;;;;-4.26;80.60;102599.25;123061;1099;104355;-76
2024/01/22 03:34:22;;;;;;;38.03;18.03;;;;;;;-4.27;80.76;102593.92;123119;1099;104270;-76
2024/01/22 03:36:53;;;;;;;41.53;19.67;;;;;;;-4.32;79.89;102582.17;123114;1099;104280;-75
2024/01/22 03:39:24;;;;;;;45.67;20.70;;;;;;;-4.35;80.44;102595.50;123386;1099;104351;-76
2024/01/22 03:41:55;;;;;;;42.60;20.43;;;;;;;-4.30;80.46;102598.66;123340;1098;104645;-76
2024/01/22 03:44:26;;;;;;;44.10;20.47;;;;;;;-4.24;80.82;102599.45;123422;1099;104431;-76
2024/01/22 03:46:57;;;;;;;39.53;18.63;;;;;;;-4.19;81.30;102594.20;123607;1099;104287;-76
2024/01/22 03:49:28;;;;;;;45.07;20.90;;;;;;;-4.19;80.95;102606.08;123324;1099;104271;-76
2024/01/22 03:52:00;;;;;;;42.80;20.03;;;;;;;-4.27;80.10;102611.88;123369;1099;104268;-77
2024/01/22 03:54:31;;;;;;;39.50;18.70;;;;;;;-4.36;79.96;102612.53;123386;1099;104312;-76
2024/01/22 03:57:06;;;;;;;43.77;20.90;;;;;;;-4.44;80.06;102617.38;123707;1099;104373;-76
2024/01/22 03:59:38;;;;;;;41.93;19.80;;;;;;;-4.53;80.03;102623.17;123279;1099;104248;-76
2024/01/22 04:02:10;;;;;;;40.30;19.77;;;;;;;-4.59;79.83;102622.37;123338;1099;104264;-76
2024/01/22 04:04:42;;;;;;;42.80;20.70;;;;;;;-4.65;80.11;102630.91;123411;1099;104273;-76
2024/01/22 04:07:13;;;;;;;44.23;20.30;;;;;;;-4.62;80.58;102633.87;123422;1099;104265;-76
2024/01/22 04:09:45;;;;;;;43.90;20.47;;;;;;;-4.58;80.64;102624.22;123514;1099;104418;-76
2024/01/22 04:12:16;;;;;;;42.23;19.33;;;;;;;-4.51;81.20;102620.80;123129;1099;104342;-76
2024/01/22 04:14:47;;;;;;;43.00;20.13;;;;;;;-4.47;80.56;102622.11;123410;1099;104222;-76
2024/01/22 04:17:18;;;;;;;41.60;19.10;;;;;;;-4.44;80.91;102613.20;123681;1099;104342;-76
2024/01/22 04:19:49;;;;;;;41.27;19.33;;;;;;;-4.44;80.62;102618.33;123381;1099;104239;-76
2024/01/22 04:22:20;;;;;;;41.70;19.37;;;;;;;-4.46;80.46;102621.41;123473;1098;104385;-76
2024/01/22 04:24:51;;;;;;;40.57;18.40;;;;;;;-4.53;80.38;102619.70;123406;1099;104246;-77
2024/01/22 04:27:23;;;;;;;41.90;20.53;;;;;;;-4.60;80.61;102619.61;123416;1098;104239;-76
2024/01/22 04:29:54;;;;;;;42.30;19.53;;;;;;;-4.69;80.49;102627.00;123354;1099;104341;-77
2024/01/22 04:32:25;;;;;;;42.33;20.00;;;;;;;-4.78;80.35;102639.55;123413;1098;104242;-76
2024/01/22 04:34:56;;;;;;;44.80;21.03;;;;;;;-4.83;80.16;102645.72;123345;1099;104695;-76
2024/01/22 04:37:28;;;;;;;45.90;21.83;;;;;;;-4.90;80.15;102640.50;123166;1099;104335;-76
2024/01/22 04:40:10;;;;;;;41.83;20.80;;;;;;;-4.92;80.45;102639.39;123375;1098;104268;-76
2024/01/22 04:42:42;;;;;;;40.57;20.47;;;;;;;-4.93;80.54;102641.01;123407;1099;104344;-76
2024/01/22 04:45:13;;;;;;;44.63;20.20;;;;;;;-4.91;80.77;102641.21;123403;1099;104261;-76
2024/01/22 04:47:45;;;;;;;47.70;22.20;;;;;;;-4.88;80.68;102651.86;123411;1099;104166;-76
2024/01/22 04:50:16;;;;;;;41.97;19.57;;;;;;;-4.88;80.81;102652.80;123304;1099;104312;-76
2024/01/22 04:52:47;;;;;;;43.83;20.93;;;;;;;-4.89;80.53;102645.83;123396;1099;104281;-76
2024/01/22 04:55:18;;;;;;;48.57;22.07;;;;;;;-4.92;80.76;102649.63;123374;1099;104341;-76
2024/01/22 04:57:49;;;;;;;45.07;21.83;;;;;;;-4.89;80.80;102645.83;123452;1099;104421;-77
2024/01/22 05:00:21;;;;;;;48.13;21.57;;;;;;;-4.82;80.94;102642.42;123423;1099;104395;-76
2024/01/22 05:02:52;;;;;;;46.77;21.77;;;;;;;-4.77;80.82;102638.84;123425;1099;104325;-76
2024/01/22 05:05:23;;;;;;;48.93;22.47;;;;;;;-4.74;80.97;102639.21;123443;1099;104296;-77
2024/01/22 05:07:54;;;;;;;46.70;21.20;;;;;;;-4.73;80.73;102637.59;123466;1099;104296;-77
2024/01/22 05:10:26;;;;;;;51.17;22.50;;;;;;;-4.71;80.83;102637.05;123513;1099;104300;-77
2024/01/22 05:12:57;;;;;;;47.40;21.27;;;;;;;-4.72;80.58;102635.23;123423;1099;104364;-77
2024/01/22 05:15:28;;;;;;;46.83;21.97;;;;;;;-4.70;81.28;102626.09;123271;1099;104306;-77
2024/01/22 05:17:59;;;;;;;45.20;21.83;;;;;;;-4.67;81.14;102623.02;123441;1099;104197;-76
2024/01/22 05:20:30;;;;;;;47.87;21.80;;;;;;;-4.67;81.30;102625.59;123514;1099;104240;-77
2024/01/22 05:23:01;;;;;;;46.90;21.87;;;;;;;-4.64;81.50;102625.98;123503;1099;104269;-77
2024/01/22 05:25:33;;;;;;;47.80;22.13;;;;;;;-4.63;81.21;102624.33;123613;1098;104702;-78
2024/01/22 05:28:04;;;;;;;48.33;22.43;;;;;;;-4.62;81.38;102621.97;123468;1099;104756;-76
2024/01/22 05:30:35;;;;;;;48.30;22.57;;;;;;;-4.60;81.36;102624.73;123560;1099;104262;-77
2024/01/22 05:33:07;;;;;;;47.07;23.43;;;;;;;-4.58;80.97;102628.41;123595;1099;104341;-77
2024/01/22 05:35:38;;;;;;;46.77;22.73;;;;;;;-4.55;81.42;102639.05;123557;1099;104370;-77
2024/01/22 05:38:09;;;;;;;54.67;26.00;;;;;;;-4.58;80.87;102643.77;123466;1099;104249;-77
2024/01/22 05:40:41;;;;;;;62.50;31.37;;;;;;;-4.69;81.22;102642.38;123403;1099;104248;-77
2024/01/22 05:43:13;;;;;;;96.73;44.97;;;;;;;-4.74;80.34;102646.89;123504;1099;104354;-77
2024/01/22 05:45:44;;;;;;;82.90;41.63;;;;;;;-4.79;80.63;102644.47;123637;1099;104262;-77
2024/01/22 05:48:16;;;;;;;70.80;36.33;;;;;;;-4.78;80.98;102636.99;123251;1099;104340;-77
2024/01/22 05:50:47;;;;;;;67.40;33.47;;;;;;;-4.74;81.12;102634.09;123403;1099;104345;-77
2024/01/22 05:53:18;;;;;;;60.83;29.40;;;;;;;-4.66;81.34;102629.05;123439;1099;104373;-77
2024/01/22 05:55:49;;;;;;;60.43;30.00;;;;;;;-4.59;81.01;102631.71;123663;1099;104245;-77
2024/01/22 05:58:22;;;;;;;61.17;28.60;;;;;;;-4.50;81.40;102632.91;123844;1098;104347;-76
2024/01/22 06:00:54;;;;;;;56.30;27.35;;;;;;;-4.40;81.22;102635.92;123729;1099;104265;-76
2024/01/22 06:03:25;;;;;;;51.77;24.97;;;;;;;-4.32;81.66;102643.69;124033;1098;104223;-77
2024/01/22 06:05:56;;;;;;;46.20;22.27;;;;;;;-4.25;82.08;102643.77;123995;1099;104220;-77
2024/01/22 06:08:27;;;;;;;52.27;24.20;;;;;;;-4.25;81.38;102639.55;124075;1099;104275;-76
2024/01/22 06:10:59;;;;;;;49.37;23.10;;;;;;;-4.27;81.28;102645.20;124116;1099;104221;-77
2024/01/22 06:13:31;;;;;;;48.70;22.17;;;;;;;-4.26;81.42;102652.17;124207;1098;104274;-77
2024/01/22 06:16:02;;;;;;;50.43;23.67;;;;;;;-4.27;80.99;102658.95;123787;1099;104414;-77
2024/01/22 06:18:34;;;;;;;47.70;23.00;;;;;;;-4.23;81.57;102657.70;124212;1099;104242;-78
2024/01/22 06:21:05;;;;;;;49.57;23.87;;;;;;;-4.18;81.69;102659.20;123841;1099;104197;-77
2024/01/22 06:23:37;;;;;;;48.83;24.53;;;;;;;-4.13;81.39;102662.36;123959;1099;104245;-77
2024/01/22 06:26:11;;;;;;;51.63;24.73;;;;;;;-4.04;82.06;102656.77;123956;1098;104264;-77
2024/01/22 06:28:42;;;;;;;45.83;22.83;;;;;;;-3.91;81.42;102660.90;123958;1099;104335;-77
2024/01/22 06:31:14;;;;;;;49.67;23.43;;;;;;;-3.81;81.49;102667.41;124000;1099;104165;-77
2024/01/22 06:33:45;;;;;;;47.53;24.77;;;;;;;-3.70;81.62;102668.77;124497;1099;104237;-78
2024/01/22 06:36:16;;;;;;;66.10;34.43;;;;;;;-3.60;81.51;102668.28;124541;1099;104245;-77
2024/01/22 06:38:48;;;;;;;80.00;41.87;;;;;;;-3.51;81.75;102666.88;124382;1098;104209;-77
2024/01/22 06:41:22;;;;;;;78.00;41.20;;;;;;;-3.41;82.37;102668.05;123948;1099;104165;-77
2024/01/22 06:43:53;;;;;;;74.37;39.77;;;;;;;-3.34;81.50;102661.31;123926;1099;104320;-77
2024/01/22 06:46:25;;;;;;;70.63;38.10;;;;;;;-3.26;81.74;102667.41;124195;1099;105531;-77
2024/01/22 06:48:56;;;;;;;71.17;37.43;;;;;;;-3.19;81.87;102663.98;124234;1099;104352;-78
2024/01/22 06:51:29;;;;;;;70.73;36.03;;;;;;;-3.12;81.87;102674.28;124193;1099;104160;-76
2024/01/22 06:54:02;;;;;;;68.17;34.90;;;;;;;-3.08;82.23;102676.52;124584;1099;102310;-76
2024/01/22 06:56:35;;;;;;;62.77;33.10;;;;;;;-3.04;82.04;102686.42;124261;1099;104252;-76
2024/01/22 06:59:07;;;;;;;62.07;31.67;;;;;;;-3.03;82.42;102682.23;124704;1099;104172;-75
2024/01/22 07:01:39;;;;;;;61.13;31.77;;;;;;;-2.98;81.31;102676.91;124735;1099;104270;-76
2024/01/22 07:04:10;;;;;;;66.33;32.37;;;;;;;-2.91;81.64;102687.23;124403;1099;104239;-76
2024/01/22 07:06:44;;;;;;;68.07;35.00;;;;;;;-2.86;82.42;102681.77;124283;1098;104437;-76
2024/01/22 07:09:16;;;;;;;;;;;;;;;-2.79;82.11;102681.77;124265;1099;104369;-77
2024/01/22 07:11:58;;;;;;;70.57;35.90;;;;;;;-2.68;82.57;102686.61;124502;1099;104165;-77
2024/01/22 07:14:29;;;;;;;72.33;37.53;;;;;;;-2.57;82.72;102691.42;124547;1099;103975;-77
2024/01/22 07:17:00;;;;;;;59.23;32.57;;;;;;;-2.47;82.34;102687.41;124534;1099;102159;-77
2024/01/22 07:19:35;;;;;;;66.80;34.87;;;;;;;-2.43;81.61;102676.75;124764;1098;104309;-76
2024/01/22 07:22:10;;;;;;;69.87;37.73;;;;;;;-2.33;82.94;102682.30;124207;1099;104210;-77
2024/01/22 07:24:46;;;;;;;66.27;35.23;;;;;;;-2.22;82.58;102676.80;124902;1099;104268;-76
2024/01/22 07:27:18;;;;;;;64.67;35.03;;;;;;;-2.13;81.44;102670.95;124587;1099;104260;-77
2024/01/22 07:29:49;;;;;;;75.10;38.27;;;;;;;-2.07;81.74;102664.89;124789;1099;104344;-76
2024/01/22 07:32:21;;;;;;;72.87;39.67;;;;;;;-1.96;82.92;102655.89;124412;1099;104252;-76
2024/01/22 07:34:52;;;;;;;70.43;37.83;;;;;;;-1.85;82.06;102657.19;124153;1100;102215;-76
2024/01/22 07:37:31;;;;;;;71.03;37.77;;;;;;;-1.72;81.89;102656.98;124442;1102;104281;-77
2024/01/22 07:40:05;;;;;;;69.80;37.35;;;;;;;-1.64;82.21;102658.81;124410;1099;104268;-77
2024/01/22 07:42:42;;;;;;;65.55;36.38;;;;;;;-1.55;81.78;102666.72;124348;1099;104172;-77
2024/01/22 07:45:17;;;;;;;67.87;34.50;;;;;;;-1.38;82.87;102666.14;126804;1098;102107;-77
2024/01/22 07:47:49;;;;;;;65.97;35.97;;;;;;;-1.30;81.95;102661.14;124372;1099;104322;-76
2024/01/22 07:50:20;;;;;;;62.73;34.83;;;;;;;-1.30;81.82;102653.41;124616;1099;102403;-77
2024/01/22 07:52:51;;;;;;;71.33;38.57;;;;;;;-1.28;81.86;102653.59;124257;1099;104188;-77
2024/01/22 07:55:23;;;;;;;77.97;41.23;;;;;;;-1.20;81.57;102647.70;124502;1099;104242;-76
2024/01/22 07:57:55;;;;;;;74.50;41.20;;;;;;;-1.06;82.94;102643.22;124405;1099;104331;-76
2024/01/22 08:00:27;;;;;;;81.57;43.90;;;;;;;-0.91;82.09;102639.85;125063;1099;104278;-77
2024/01/22 08:03:01;;;;;;;73.90;39.78;;;;;;;-0.85;81.67;102643.14;124536;1099;104226;-77
2024/01/22 08:05:32;;;;;;;91.77;51.10;;;;;;;-0.88;81.81;102647.95;124479;1099;104223;-77
2024/01/22 08:08:04;;;;;;;98.33;55.87;;;;;;;-0.83;81.50;102649.38;124616;1099;104219;-76
2024/01/22 08:10:40;;;;;;;95.30;53.80;;;;;;;-0.81;82.06;102649.56;124761;1099;104338;-76
2024/01/22 08:13:13;;;;;;;96.50;54.85;;;;;;;-0.83;81.27;102651.05;124709;1099;104331;-76
2024/01/22 08:15:45;;;;;;;90.10;49.80;;;;;;;-0.80;81.77;102652.31;124672;1099;104265;-76
2024/01/22 08:18:17;;;;;;;95.00;55.10;;;;;;;-0.74;82.19;102642.71;124299;1099;104329;-75
2024/01/22 08:20:51;;;;;;;98.73;56.60;;;;;;;-0.79;82.17;102636.13;124489;1099;101837;-75
2024/01/22 08:23:22;;;;;;;93.60;54.07;;;;;;;-0.67;82.81;102640.84;124336;1099;104319;-75
2024/01/22 08:25:54;;;;;;;112.77;60.70;;;;;;;-0.59;82.48;102632.34;124392;1098;104242;-76
2024/01/22 08:28:29;;;;;;;100.53;49.33;;;;;;;-0.54;81.70;102633.78;124842;1099;104249;-76
2024/01/22 08:31:00;;;;;;;104.77;55.93;;;;;;;-0.52;82.53;102634.86;124624;1099;104270;-76
2024/01/22 08:33:32;;;;;;;102.80;56.57;;;;;;;-0.43;82.15;102635.01;124271;1099;104258;-78
2024/01/22 08:36:30;;;;;;;75.57;42.03;;;;;;;-0.32;82.72;102643.97;124625;1099;103567;-76
2024/01/22 08:39:02;;;;;;;82.93;45.77;;;;;;;-0.23;82.05;102632.11;124149;1099;104211;-76
2024/01/22 08:41:36;;;;;;;70.23;39.83;;;;;;;-0.16;82.85;102632.04;123995;1099;104370;-76
2024/01/22 08:44:10;;;;;;;64.73;35.03;;;;;;;-0.18;82.30;102646.45;124504;1099;104326;-75
2024/01/22 08:46:42;;;;;;;52.97;29.73;;;;;;;-0.20;82.56;102656.59;124201;1099;104219;-76
2024/01/22 08:49:16;;;;;;;48.43;26.53;;;;;;;-0.21;82.62;102646.09;124414;1099;104365;-76
2024/01/22 08:51:47;;;;;;;54.40;29.30;;;;;;;-0.09;82.21;102650.06;124512;1099;104173;-76
2024/01/22 08:54:18;;;;;;;61.07;32.53;;;;;;;0.04;82.34;102651.45;124127;1099;104435;-77
2024/01/22 08:56:49;;;;;;;53.90;30.00;;;;;;;0.11;81.78;102648.78;124752;1099;104318;-77
2024/01/22 08:59:35;;;;;;;51.53;28.23;;;;;;;0.14;82.39;102655.23;124694;1099;102728;-77
2024/01/22 09:02:09;;;;;;;53.20;29.83;;;;;;;0.14;82.56;102655.23;124184;1102;103739;-77
2024/01/22 09:07:51;;;;;;;49.13;26.93;;;;;;;0.45;82.76;102643.16;124576;1099;104188;-76
2024/01/22 09:10:23;;;;;;;54.10;29.80;;;;;;;0.59;82.83;102639.48;124477;1099;104239;-77
2024/01/22 09:13:01;;;;;;;51.13;27.80;;;;;;;0.68;82.68;102622.41;124342;1099;104201;-77
2024/01/22 09:15:33;;;;;;;55.20;31.03;;;;;;;0.77;81.52;102630.25;124563;1099;104316;-76
2024/01/22 09:18:07;;;;;;;57.03;33.15;;;;;;;0.80;81.97;102619.34;124369;1098;107062;-76
2024/01/22 09:20:38;;;;;;;58.63;31.30;;;;;;;0.84;81.95;102618.91;124376;1099;103954;-76
2024/01/22 09:23:10;;;;;;;60.73;32.10;;;;;;;0.86;82.34;102620.02;124447;1099;104178;-76
2024/01/22 09:25:45;;;;;;;54.67;31.40;;;;;;;0.81;82.02;102610.81;124546;1098;104236;-75
2024/01/22 09:28:19;;;;;;;63.70;32.50;;;;;;;0.88;82.22;102600.41;124041;1099;102086;-75
2024/01/22 09:30:51;;;;;;;56.27;31.13;;;;;;;0.96;82.30;102591.80;124372;1099;104741;-74
2024/01/22 09:33:22;;;;;;;58.37;31.97;;;;;;;1.05;82.23;102577.28;124444;1099;102389;-76
2024/01/22 09:35:54;;;;;;;53.90;28.73;;;;;;;1.06;82.37;102555.84;124386;1099;104307;-75
2024/01/22 09:38:27;;;;;;;50.70;26.97;;;;;;;1.22;82.94;102576.49;124431;1099;104271;-75
2024/01/22 09:40:59;;;;;;;48.53;25.83;;;;;;;1.35;82.14;102582.97;124308;1099;104271;-75
2024/01/22 09:43:34;;;;;;;46.73;25.23;;;;;;;1.33;82.40;102579.31;124447;1098;104233;-75
2024/01/22 09:46:06;;;;;;;41.43;21.83;;;;;;;1.39;81.12;102562.77;124546;1099;104243;-75
2024/01/22 09:48:39;;;;;;;44.47;23.37;;;;;;;1.34;81.46;102566.55;124409;1099;104271;-76
2024/01/22 09:51:12;;;;;;;40.30;22.13;;;;;;;1.34;81.96;102566.55;124379;1099;104227;-75
2024/01/22 09:53:46;;;;;;;39.78;22.17;;;;;;;1.43;82.38;102564.94;124454;1099;104243;-75
2024/01/22 09:56:20;;;;;;;42.95;22.20;;;;;;;1.40;81.28;102553.32;124262;1099;104316;-74
2024/01/22 09:58:58;;;;;;;39.50;21.80;;;;;;;1.35;81.82;102559.69;124389;1099;104443;-76
2024/01/22 10:01:30;;;;;;;41.40;22.33;;;;;;;1.38;81.85;102560.02;124420;1099;104245;-77
2024/01/22 10:04:04;;;;;;;40.30;21.53;;;;;;;1.48;81.97;102554.12;124630;1099;104245;-77
2024/01/22 10:06:36;;;;;;;;;;;;;;;1.46;81.01;102564.31;124280;1099;104243;-77
2024/01/22 10:09:09;;;;;;;42.73;23.23;;;;;;;1.40;81.44;102574.95;124455;1099;107090;-77
2024/01/22 10:11:42;;;;;;;43.70;23.07;;;;;;;1.35;81.54;102570.94;124422;1099;104355;-77
2024/01/22 10:14:14;;;;;;;46.43;24.83;;;;;;;1.45;81.65;102572.86;124492;1099;104200;-77
2024/01/22 10:16:45;;;;;;;44.43;23.67;;;;;;;1.71;81.92;102560.03;124582;1098;104223;-77
2024/01/22 10:19:25;;;;;;;45.57;24.53;;;;;;;1.92;82.26;102556.18;124629;1099;104390;-77
2024/01/22 10:22:03;;;;;;;44.97;23.70;;;;;;;2.13;82.08;102551.38;124623;1099;104156;-75
2024/01/22 10:24:36;;;;;;;42.00;22.87;;;;;;;2.28;82.45;102560.71;124531;1098;103023;-77
2024/01/22 10:27:19;;;;;;;36.93;19.97;;;;;;;2.37;82.36;102537.42;124332;1099;104242;-76
2024/01/22 10:29:53;;;;;;;36.00;18.67;;;;;;;2.34;81.53;102524.16;124406;1099;104410;-77
2024/01/22 10:32:31;;;;;;;34.57;18.10;;;;;;;2.28;81.02;102528.72;124840;1099;103190;-77
2024/01/22 10:35:04;;;;;;;33.87;17.87;;;;;;;2.16;80.67;102521.50;124771;1099;104208;-76
2024/01/22 10:38:07;;;;;;;35.20;18.67;;;;;;;1.98;81.27;102533.52;124661;1099;102650;-76
2024/01/22 10:40:39;;;;;;;32.20;17.13;;;;;;;1.96;81.22;102524.68;124679;1099;104223;-77
2024/01/22 10:43:26;;;;;;;32.27;16.43;;;;;;;1.94;80.55;102522.68;125655;1099;104185;-76
2024/01/22 10:45:59;;;;;;;32.10;16.50;;;;;;;1.96;80.89;102513.38;124871;1099;104193;-77
2024/01/22 10:48:30;;;;;;;29.90;15.70;;;;;;;1.98;81.04;102506.71;124735;1099;104259;-75
2024/01/22 10:51:02;;;;;;;33.30;16.53;;;;;;;2.03;81.00;102489.95;124746;1099;104425;-75
2024/01/22 10:53:38;;;;;;;32.20;16.97;;;;;;;2.04;80.66;102477.91;124482;1099;104210;-76
2024/01/22 10:56:23;;;;;;;32.23;17.43;;;;;;;1.99;79.82;102477.45;124718;1099;104217;-76
2024/01/22 10:59:04;;;;;;;32.53;16.97;;;;;;;1.98;80.40;102471.36;124616;1099;104418;-77
2024/01/22 11:01:36;;;;;;;30.77;16.33;;;;;;;1.94;79.96;102464.03;124205;1099;104367;-76
2024/01/22 11:04:11;;;;;;;32.73;16.27;;;;;;;1.95;80.46;102455.52;124822;1099;104182;-76
2024/01/22 11:06:45;;;;;;;34.53;18.17;;;;;;;1.95;80.99;102452.92;124325;1099;104366;-75
2024/01/22 11:09:17;;;;;;;36.35;18.65;;;;;;;1.97;80.57;102447.91;124368;1099;102415;-74
2024/01/22 11:11:52;;;;;;;36.93;17.77;;;;;;;1.96;80.31;102435.70;123926;1099;104304;-74
2024/01/22 11:14:24;;;;;;;34.63;18.80;;;;;;;1.94;80.31;102424.29;124288;1099;104319;-76
2024/01/22 11:16:55;;;;;;;33.87;17.60;;;;;;;1.93;80.41;102418.20;124717;1099;102881;-76
2024/01/22 11:19:26;;;;;;;38.80;20.20;;;;;;;1.94;80.28;102426.87;124631;1098;103280;-75
2024/01/22 11:21:58;;;;;;;35.53;18.63;;;;;;;1.92;80.22;102413.78;124518;1099;104163;-75
2024/01/22 11:24:30;;;;;;;38.97;19.60;;;;;;;1.87;79.90;102411.47;125004;1099;103157;-75